DLH6K LSZH-EDDF
Flight info
| Callsign | DLH6K |
|---|---|
| Flight time | 0h 36m |
| Altitude | 20000 |
| Route | DEGES Z1 SUDEN T164 KOVAN T163 SPESA SPESA5B |
| Aircraft | A320/M-SDE3FGHIRWY/LB1 |
Departure
| Time | 2026-05-04 20:59 |
|---|---|
| Airport | Zürich Airport (LSZH) |
Arrival
| Time | 2026-05-04 21:35 |
|---|---|
| Airport | Frankfurt Main Airport (EDDF) |
| Time | Latitude | Longitude | Altitude | Speed | Heading |
|---|---|---|---|---|---|
| 2026-05-04 20:27 | 47.45184 | 8.55751 | 1407 ft | 0 kts | 186° |
| 2026-05-04 20:46 | 47.45189 | 8.55751 | 1411 ft | 3 kts | 186° |
| 2026-05-04 20:47 | 47.45215 | 8.55755 | 1412 ft | 4 kts | 187° |
| 2026-05-04 20:47 | 47.45241 | 8.55764 | 1409 ft | 4 kts | 209° |
| 2026-05-04 20:47 | 47.45259 | 8.55789 | 1411 ft | 4 kts | 262° |
| 2026-05-04 20:47 | 47.45259 | 8.55806 | 1407 ft | 1 kts | 276° |
| 2026-05-04 20:48 | 47.45259 | 8.55808 | 1407 ft | 0 kts | 276° |
| 2026-05-04 20:49 | 47.45259 | 8.55807 | 1407 ft | 0 kts | 276° |
| 2026-05-04 20:50 | 47.45262 | 8.55773 | 1407 ft | 6 kts | 276° |
| 2026-05-04 20:50 | 47.45267 | 8.55695 | 1407 ft | 9 kts | 276° |
| 2026-05-04 20:50 | 47.45278 | 8.55594 | 1410 ft | 11 kts | 292° |
| 2026-05-04 20:50 | 47.45341 | 8.55532 | 1410 ft | 12 kts | 335° |
| 2026-05-04 20:51 | 47.45435 | 8.55468 | 1404 ft | 15 kts | 334° |
| 2026-05-04 20:51 | 47.45517 | 8.55455 | 1404 ft | 11 kts | 44° |
| 2026-05-04 20:51 | 47.45523 | 8.55555 | 1406 ft | 11 kts | 96° |
| 2026-05-04 20:51 | 47.45511 | 8.55708 | 1407 ft | 19 kts | 96° |
| 2026-05-04 20:52 | 47.45497 | 8.55922 | 1407 ft | 21 kts | 96° |
| 2026-05-04 20:52 | 47.45483 | 8.56126 | 1407 ft | 19 kts | 96° |
| 2026-05-04 20:52 | 47.45514 | 8.56248 | 1409 ft | 11 kts | 12° |
| 2026-05-04 20:52 | 47.45588 | 8.56259 | 1412 ft | 12 kts | 6° |
| 2026-05-04 20:53 | 47.45687 | 8.56274 | 1413 ft | 18 kts | 6° |
| 2026-05-04 20:53 | 47.45809 | 8.56292 | 1417 ft | 15 kts | 6° |
| 2026-05-04 20:53 | 47.45907 | 8.56308 | 1413 ft | 10 kts | 6° |
| 2026-05-04 20:53 | 47.45938 | 8.56313 | 1413 ft | 2 kts | 6° |
| 2026-05-04 20:54 | 47.45941 | 8.56313 | 1413 ft | 0 kts | 6° |
| 2026-05-04 20:54 | 47.45955 | 8.56315 | 1412 ft | 4 kts | 6° |
| 2026-05-04 20:54 | 47.45997 | 8.56322 | 1414 ft | 7 kts | 6° |
| 2026-05-04 20:55 | 47.46024 | 8.56326 | 1415 ft | 0 kts | 6° |
| 2026-05-04 20:56 | 47.46061 | 8.56335 | 1411 ft | 10 kts | 18° |
| 2026-05-04 20:56 | 47.46108 | 8.56389 | 1416 ft | 8 kts | 45° |
| 2026-05-04 20:56 | 47.46151 | 8.56414 | 1414 ft | 6 kts | 345° |
| 2026-05-04 20:57 | 47.46171 | 8.56389 | 1410 ft | 3 kts | 317° |
| 2026-05-04 20:58 | 47.46200 | 8.56349 | 1409 ft | 32 kts | 317° |
| 2026-05-04 20:58 | 47.46578 | 8.55834 | 1401 ft | 110 kts | 317° |
| 2026-05-04 20:58 | 47.47291 | 8.54863 | 1411 ft | 165 kts | 317° |
| 2026-05-04 20:59 | 47.48146 | 8.53727 | 2170 ft | 162 kts | 317° |
| 2026-05-04 20:59 | 47.48984 | 8.52626 | 2925 ft | 167 kts | 317° |
| 2026-05-04 20:59 | 47.49950 | 8.51526 | 3413 ft | 187 kts | 329° |
| 2026-05-04 20:59 | 47.51149 | 8.50570 | 3885 ft | 206 kts | 331° |
| 2026-05-04 21:00 | 47.52416 | 8.49394 | 4502 ft | 221 kts | 315° |
| 2026-05-04 21:00 | 47.53278 | 8.47530 | 5411 ft | 222 kts | 290° |
| 2026-05-04 21:00 | 47.53568 | 8.45282 | 6235 ft | 225 kts | 265° |
| 2026-05-04 21:00 | 47.53224 | 8.43039 | 7087 ft | 225 kts | 243° |
| 2026-05-04 21:01 | 47.52524 | 8.40962 | 7941 ft | 227 kts | 242° |
| 2026-05-04 21:01 | 47.52068 | 8.39567 | 8551 ft | 228 kts | 242° |
| 2026-05-04 21:01 | 47.50688 | 8.37329 | 9781 ft | 227 kts | 205° |
| 2026-05-04 21:01 | 47.49135 | 8.36917 | 10594 ft | 233 kts | 176° |
| 2026-05-04 21:02 | 47.47598 | 8.37766 | 11360 ft | 245 kts | 145° |
| 2026-05-04 21:02 | 47.46555 | 8.39797 | 12191 ft | 255 kts | 116° |
| 2026-05-04 21:02 | 47.45986 | 8.42286 | 13082 ft | 260 kts | 107° |
| 2026-05-04 21:02 | 47.45769 | 8.44051 | 13523 ft | 270 kts | 98° |
| 2026-05-04 21:03 | 47.45727 | 8.46932 | 13981 ft | 290 kts | 92° |
| 2026-05-04 21:03 | 47.45719 | 8.50038 | 14274 ft | 314 kts | 92° |
| 2026-05-04 21:03 | 47.45704 | 8.54513 | 14601 ft | 345 kts | 92° |
| 2026-05-04 21:03 | 47.45751 | 8.58173 | 14797 ft | 368 kts | 90° |
| 2026-05-04 21:04 | 47.45877 | 8.62024 | 15278 ft | 380 kts | 89° |
| 2026-05-04 21:04 | 47.45984 | 8.64617 | 15715 ft | 383 kts | 88° |
| 2026-05-04 21:04 | 47.46161 | 8.68571 | 16409 ft | 388 kts | 88° |
| 2026-05-04 21:04 | 47.46424 | 8.72569 | 17085 ft | 394 kts | 80° |
| 2026-05-04 21:05 | 47.47363 | 8.76397 | 17742 ft | 402 kts | 61° |
| 2026-05-04 21:05 | 47.48911 | 8.79862 | 18393 ft | 406 kts | 56° |
| 2026-05-04 21:05 | 47.50533 | 8.83301 | 18982 ft | 410 kts | 55° |
| 2026-05-04 21:05 | 47.52183 | 8.86771 | 19561 ft | 414 kts | 55° |
| 2026-05-04 21:06 | 47.53846 | 8.90265 | 19899 ft | 417 kts | 56° |
| 2026-05-04 21:06 | 47.55514 | 8.93781 | 19991 ft | 423 kts | 56° |
| 2026-05-04 21:06 | 47.57221 | 8.97390 | 20005 ft | 430 kts | 56° |
| 2026-05-04 21:06 | 47.58912 | 9.00986 | 19998 ft | 432 kts | 56° |
| 2026-05-04 21:07 | 47.60624 | 9.04640 | 19994 ft | 432 kts | 56° |
| 2026-05-04 21:07 | 47.62332 | 9.08300 | 19992 ft | 432 kts | 56° |
| 2026-05-04 21:07 | 47.64041 | 9.11965 | 19994 ft | 432 kts | 56° |
| 2026-05-04 21:07 | 47.65748 | 9.15625 | 19994 ft | 432 kts | 56° |
| 2026-05-04 21:08 | 47.67468 | 9.19305 | 20010 ft | 439 kts | 56° |
| 2026-05-04 21:08 | 47.69414 | 9.22895 | 20128 ft | 455 kts | 44° |
| 2026-05-04 21:08 | 47.71994 | 9.25690 | 20264 ft | 466 kts | 26° |
| 2026-05-04 21:08 | 47.75074 | 9.27263 | 20381 ft | 474 kts | 8° |
| 2026-05-04 21:09 | 47.78379 | 9.27493 | 20550 ft | 479 kts | 357° |
| 2026-05-04 21:09 | 47.81678 | 9.27402 | 20938 ft | 481 kts | 357° |
| 2026-05-04 21:09 | 47.85024 | 9.27319 | 21449 ft | 481 kts | 357° |
| 2026-05-04 21:09 | 47.88370 | 9.27244 | 21975 ft | 480 kts | 357° |
| 2026-05-04 21:10 | 47.91707 | 9.27183 | 22521 ft | 480 kts | 357° |
| 2026-05-04 21:10 | 47.95044 | 9.27129 | 23074 ft | 480 kts | 358° |
| 2026-05-04 21:10 | 47.98382 | 9.27080 | 23627 ft | 479 kts | 358° |
| 2026-05-04 21:10 | 48.01714 | 9.27029 | 24109 ft | 479 kts | 357° |
| 2026-05-04 21:11 | 48.05040 | 9.26975 | 24601 ft | 478 kts | 357° |
| 2026-05-04 21:11 | 48.08316 | 9.26921 | 25087 ft | 477 kts | 357° |
| 2026-05-04 21:11 | 48.11634 | 9.26863 | 25597 ft | 476 kts | 357° |
| 2026-05-04 21:11 | 48.14948 | 9.26800 | 26112 ft | 476 kts | 357° |
| 2026-05-04 21:12 | 48.18250 | 9.26738 | 26628 ft | 475 kts | 357° |
| 2026-05-04 21:12 | 48.21552 | 9.26676 | 27134 ft | 474 kts | 357° |
| 2026-05-04 21:12 | 48.24857 | 9.26615 | 27656 ft | 474 kts | 357° |
| 2026-05-04 21:12 | 48.28156 | 9.26549 | 27931 ft | 474 kts | 357° |
| 2026-05-04 21:13 | 48.31453 | 9.26483 | 27987 ft | 474 kts | 357° |
| 2026-05-04 21:13 | 48.34704 | 9.26420 | 27978 ft | 474 kts | 357° |
| 2026-05-04 21:13 | 48.38001 | 9.26357 | 27980 ft | 474 kts | 357° |
| 2026-05-04 21:13 | 48.41296 | 9.26297 | 27978 ft | 474 kts | 357° |
| 2026-05-04 21:14 | 48.44582 | 9.26239 | 27979 ft | 474 kts | 357° |
| 2026-05-04 21:14 | 48.47881 | 9.26178 | 27978 ft | 474 kts | 357° |
| 2026-05-04 21:14 | 48.51187 | 9.26116 | 27978 ft | 474 kts | 357° |
| 2026-05-04 21:14 | 48.54482 | 9.26054 | 27977 ft | 474 kts | 357° |
| 2026-05-04 21:15 | 48.57779 | 9.25989 | 27977 ft | 473 kts | 356° |
| 2026-05-04 21:15 | 48.61002 | 9.25512 | 27975 ft | 470 kts | 347° |
| 2026-05-04 21:15 | 48.64155 | 9.24288 | 27977 ft | 467 kts | 338° |
| 2026-05-04 21:15 | 48.67145 | 9.22421 | 27974 ft | 465 kts | 333° |
| 2026-05-04 21:16 | 48.70107 | 9.20447 | 27976 ft | 465 kts | 333° |
| 2026-05-04 21:16 | 48.73068 | 9.18481 | 27974 ft | 465 kts | 333° |
| 2026-05-04 21:16 | 48.76022 | 9.16529 | 27978 ft | 465 kts | 333° |
| 2026-05-04 21:16 | 48.79000 | 9.14562 | 27976 ft | 465 kts | 333° |
| 2026-05-04 21:17 | 48.81967 | 9.12599 | 27977 ft | 465 kts | 333° |
| 2026-05-04 21:17 | 48.84955 | 9.10717 | 27976 ft | 467 kts | 338° |
| 2026-05-04 21:17 | 48.88108 | 9.09477 | 27977 ft | 470 kts | 348° |
| 2026-05-04 21:17 | 48.91330 | 9.09034 | 27977 ft | 473 kts | 358° |
| 2026-05-04 21:18 | 48.94618 | 9.09335 | 27933 ft | 474 kts | 4° |
| 2026-05-04 21:18 | 48.97901 | 9.09801 | 27669 ft | 472 kts | 4° |
| 2026-05-04 21:18 | 49.01157 | 9.10267 | 27410 ft | 469 kts | 4° |
| 2026-05-04 21:18 | 49.04402 | 9.10733 | 27150 ft | 467 kts | 4° |
| 2026-05-04 21:19 | 49.07629 | 9.11196 | 26894 ft | 465 kts | 4° |
| 2026-05-04 21:19 | 49.10837 | 9.11658 | 26641 ft | 462 kts | 4° |
| 2026-05-04 21:19 | 49.14022 | 9.12117 | 26133 ft | 457 kts | 4° |
| 2026-05-04 21:19 | 49.17178 | 9.12567 | 25439 ft | 454 kts | 4° |
| 2026-05-04 21:20 | 49.20270 | 9.13008 | 24794 ft | 450 kts | 4° |
| 2026-05-04 21:20 | 49.23380 | 9.13450 | 24142 ft | 447 kts | 4° |
| 2026-05-04 21:20 | 49.26464 | 9.13884 | 23490 ft | 443 kts | 4° |
| 2026-05-04 21:20 | 49.29516 | 9.14316 | 22804 ft | 439 kts | 4° |
| 2026-05-04 21:21 | 49.32532 | 9.14748 | 22235 ft | 432 kts | 4° |
| 2026-05-04 21:21 | 49.35504 | 9.15177 | 21672 ft | 426 kts | 4° |
| 2026-05-04 21:21 | 49.38435 | 9.15600 | 21147 ft | 420 kts | 4° |
| 2026-05-04 21:21 | 49.41331 | 9.16021 | 20626 ft | 415 kts | 4° |
| 2026-05-04 21:22 | 49.44191 | 9.16433 | 20111 ft | 410 kts | 4° |
| 2026-05-04 21:22 | 49.46979 | 9.16829 | 19612 ft | 406 kts | 4° |
| 2026-05-04 21:22 | 49.49782 | 9.17225 | 19109 ft | 403 kts | 4° |
| 2026-05-04 21:22 | 49.52562 | 9.17619 | 18600 ft | 400 kts | 4° |
| 2026-05-04 21:23 | 49.55328 | 9.18015 | 18042 ft | 398 kts | 4° |
| 2026-05-04 21:23 | 49.58076 | 9.18412 | 17491 ft | 395 kts | 5° |
| 2026-05-04 21:23 | 49.60798 | 9.18809 | 16963 ft | 392 kts | 5° |
| 2026-05-04 21:23 | 49.63511 | 9.19125 | 16445 ft | 390 kts | 356° |
| 2026-05-04 21:24 | 49.66130 | 9.18262 | 15944 ft | 384 kts | 338° |
| 2026-05-04 21:24 | 49.68578 | 9.16872 | 15196 ft | 376 kts | 338° |
| 2026-05-04 21:24 | 49.71027 | 9.15498 | 14270 ft | 372 kts | 338° |
| 2026-05-04 21:24 | 49.73448 | 9.14161 | 13303 ft | 368 kts | 339° |
| 2026-05-04 21:25 | 49.75845 | 9.12862 | 12313 ft | 362 kts | 339° |
| 2026-05-04 21:25 | 49.78207 | 9.11590 | 11347 ft | 357 kts | 339° |
| 2026-05-04 21:25 | 49.80529 | 9.10336 | 10412 ft | 352 kts | 339° |
| 2026-05-04 21:25 | 49.82838 | 9.09090 | 10025 ft | 344 kts | 339° |
| 2026-05-04 21:26 | 49.85017 | 9.07932 | 9905 ft | 317 kts | 339° |
| 2026-05-04 21:26 | 49.87041 | 9.06865 | 9534 ft | 301 kts | 339° |
| 2026-05-04 21:26 | 49.88975 | 9.05840 | 8934 ft | 295 kts | 339° |
| 2026-05-04 21:26 | 49.90918 | 9.04807 | 8498 ft | 294 kts | 339° |
| 2026-05-04 21:27 | 49.92840 | 9.03781 | 8131 ft | 291 kts | 339° |
| 2026-05-04 21:27 | 49.94736 | 9.02764 | 7550 ft | 286 kts | 339° |
| 2026-05-04 21:27 | 49.96609 | 9.01751 | 6917 ft | 284 kts | 339° |
| 2026-05-04 21:27 | 49.98403 | 9.00781 | 6749 ft | 262 kts | 339° |
| 2026-05-04 21:28 | 50.00080 | 8.99875 | 6410 ft | 251 kts | 339° |
| 2026-05-04 21:28 | 50.01713 | 8.98985 | 5898 ft | 247 kts | 339° |
| 2026-05-04 21:28 | 50.03325 | 8.98092 | 5370 ft | 244 kts | 339° |
| 2026-05-04 21:28 | 50.04924 | 8.97189 | 5023 ft | 243 kts | 338° |
| 2026-05-04 21:29 | 50.06344 | 8.95907 | 4720 ft | 239 kts | 318° |
| 2026-05-04 21:29 | 50.07546 | 8.94159 | 4391 ft | 237 kts | 314° |
| 2026-05-04 21:29 | 50.08692 | 8.92379 | 4278 ft | 227 kts | 314° |
| 2026-05-04 21:29 | 50.09715 | 8.90572 | 4141 ft | 218 kts | 301° |
| 2026-05-04 21:30 | 50.10297 | 8.88459 | 4047 ft | 209 kts | 282° |
| 2026-05-04 21:30 | 50.10393 | 8.86269 | 3989 ft | 198 kts | 264° |
| 2026-05-04 21:30 | 50.10216 | 8.84189 | 3833 ft | 188 kts | 258° |
| 2026-05-04 21:30 | 50.09932 | 8.82268 | 3561 ft | 177 kts | 254° |
| 2026-05-04 21:31 | 50.09244 | 8.78792 | 3081 ft | 158 kts | 251° |
| 2026-05-04 21:31 | 50.08879 | 8.77224 | 2861 ft | 150 kts | 250° |
| 2026-05-04 21:31 | 50.08543 | 8.75749 | 2675 ft | 141 kts | 252° |
| 2026-05-04 21:32 | 50.08214 | 8.74321 | 2478 ft | 139 kts | 250° |
| 2026-05-04 21:32 | 50.07885 | 8.72915 | 2292 ft | 138 kts | 251° |
| 2026-05-04 21:32 | 50.07549 | 8.71522 | 2111 ft | 137 kts | 249° |
| 2026-05-04 21:32 | 50.07218 | 8.70132 | 1944 ft | 137 kts | 250° |
| 2026-05-04 21:33 | 50.06897 | 8.68758 | 1768 ft | 137 kts | 250° |
| 2026-05-04 21:33 | 50.06571 | 8.67368 | 1578 ft | 137 kts | 251° |
| 2026-05-04 21:33 | 50.06239 | 8.65988 | 1393 ft | 136 kts | 251° |
| 2026-05-04 21:33 | 50.05923 | 8.64607 | 1204 ft | 135 kts | 250° |
| 2026-05-04 21:34 | 50.05597 | 8.63246 | 1024 ft | 134 kts | 250° |
| 2026-05-04 21:34 | 50.05273 | 8.61897 | 836 ft | 133 kts | 250° |
| 2026-05-04 21:34 | 50.04957 | 8.60557 | 675 ft | 131 kts | 250° |
| 2026-05-04 21:34 | 50.04643 | 8.59243 | 482 ft | 131 kts | 250° |
| 2026-05-04 21:35 | 50.04317 | 8.57933 | 367 ft | 121 kts | 251° |
| 2026-05-04 21:35 | 50.04092 | 8.56932 | 363 ft | 75 kts | 250° |
| 2026-05-04 21:35 | 50.03990 | 8.56493 | 357 ft | 24 kts | 259° |
| 2026-05-04 21:35 | 50.04003 | 8.56268 | 351 ft | 18 kts | 280° |
| 2026-05-04 21:36 | 50.04020 | 8.56125 | 353 ft | 12 kts | 280° |
| 2026-05-04 21:36 | 50.04049 | 8.56026 | 352 ft | 8 kts | 315° |
| 2026-05-04 21:36 | 50.04100 | 8.55967 | 362 ft | 10 kts | 336° |
| 2026-05-04 21:36 | 50.04160 | 8.55932 | 352 ft | 9 kts | 339° |
| 2026-05-04 21:37 | 50.04218 | 8.55918 | 357 ft | 6 kts | 14° |
| 2026-05-04 21:37 | 50.04231 | 8.55930 | 354 ft | 1 kts | 36° |
| 2026-05-04 21:37 | 50.04232 | 8.55931 | 354 ft | 1 kts | 38° |
| 2026-05-04 21:37 | 50.04254 | 8.55999 | 359 ft | 12 kts | 69° |
| 2026-05-04 21:38 | 50.04281 | 8.56113 | 359 ft | 13 kts | 70° |
| 2026-05-04 21:38 | 50.04326 | 8.56298 | 362 ft | 21 kts | 70° |
| 2026-05-04 21:38 | 50.04379 | 8.56526 | 359 ft | 23 kts | 69° |
| 2026-05-04 21:38 | 50.04423 | 8.56710 | 359 ft | 16 kts | 70° |
| 2026-05-04 21:39 | 50.04473 | 8.56853 | 363 ft | 14 kts | 35° |
| 2026-05-04 21:39 | 50.04571 | 8.56898 | 365 ft | 16 kts | 13° |
| 2026-05-04 21:39 | 50.04676 | 8.56950 | 359 ft | 16 kts | 25° |
| 2026-05-04 21:39 | 50.04757 | 8.57008 | 362 ft | 10 kts | 24° |
| 2026-05-04 21:40 | 50.04812 | 8.57043 | 358 ft | 5 kts | 7° |
| 2026-05-04 21:40 | 50.04833 | 8.57012 | 358 ft | 4 kts | 297° |
| 2026-05-04 21:40 | 50.04846 | 8.56968 | 361 ft | 4 kts | 295° |
| 2026-05-04 21:40 | 50.04852 | 8.56946 | 359 ft | 0 kts | 294° |